Time;durP1;ratioP1;P1;durP2;ratioP2;P2;SDS_P1;SDS_P2;PMS_P1;PMS_P2;Temp;Humidity;BMP_temperature;BMP_pressure;BME280_temperature;BME280_humidity;BME280_pressure;Samples;Min_cycle;Max_cycle;Signal;HPM_P1;HPM_P2
2022/07/02 00:00:51;;;;;;;5.67;5.30;;;18.50;99.90;;;;;;5072673;28;20534;-60
2022/07/02 00:03:24;;;;;;;6.17;5.67;;;18.40;99.90;;;;;;5073080;28;20453;-58
2022/07/02 00:05:56;;;;;;;6.93;5.83;;;18.40;99.90;;;;;;5073199;28;20511;-58
2022/07/02 00:08:24;;;;;;;5.80;5.30;;;18.40;99.90;;;;;;5072938;28;20447;-58
2022/07/02 00:10:51;;;;;;;5.40;5.10;;;18.30;99.90;;;;;;5072722;28;20455;-59
2022/07/02 00:13:18;;;;;;;6.43;5.87;;;18.20;99.90;;;;;;5072738;28;20952;-57
2022/07/02 00:15:45;;;;;;;6.30;5.90;;;18.20;99.90;;;;;;5072810;28;20530;-58
2022/07/02 00:18:12;;;;;;;6.43;5.93;;;18.20;99.90;;;;;;5072755;28;20871;-57
2022/07/02 00:20:41;;;;;;;6.40;6.00;;;18.20;99.90;;;;;;5072718;28;20725;-57
2022/07/02 00:23:08;;;;;;;8.33;5.80;;;18.10;99.90;;;;;;5072590;28;20454;-59
2022/07/02 00:25:39;;;;;;;6.40;5.77;;;18.10;99.90;;;;;;5073866;28;20954;-57
2022/07/02 00:28:07;;;;;;;8.70;5.90;;;18.10;99.90;;;;;;5076902;28;20451;-59
2022/07/02 00:30:34;;;;;;;7.20;6.70;;;18.10;99.90;;;;;;5076643;28;20451;-59
2022/07/02 00:33:02;;;;;;;6.53;6.03;;;18.00;99.90;;;;;;5076500;28;20549;-57
2022/07/02 00:35:30;;;;;;;6.77;6.17;;;18.00;99.90;;;;;;5076435;28;20569;-58
2022/07/02 00:37:58;;;;;;;6.83;6.40;;;18.00;99.90;;;;;;5076342;28;20479;-59
2022/07/02 00:40:26;;;;;;;6.77;6.30;;;17.90;99.90;;;;;;5076268;28;21006;-58
2022/07/02 00:42:53;;;;;;;6.83;6.30;;;17.90;99.90;;;;;;5076377;28;20885;-58
2022/07/02 00:45:19;;;;;;;7.37;6.83;;;17.80;99.90;;;;;;5076186;28;20454;-58
2022/07/02 00:47:46;;;;;;;6.80;6.30;;;17.80;99.90;;;;;;5076078;28;20879;-58
2022/07/02 00:50:13;;;;;;;10.77;6.70;;;17.80;99.90;;;;;;5076141;28;20546;-58
2022/07/02 00:52:39;;;;;;;7.03;6.40;;;17.80;99.90;;;;;;5075927;28;20817;-58
2022/07/02 00:55:08;;;;;;;7.17;6.77;;;17.80;99.90;;;;;;5076177;28;20541;-59
2022/07/02 00:57:35;;;;;;;6.93;6.43;;;17.80;99.90;;;;;;5075775;28;20485;-58
2022/07/02 01:00:01;;;;;;;6.53;5.90;;;17.80;99.90;;;;;;5076041;28;20546;-58
2022/07/02 01:02:28;;;;;;;7.93;6.20;;;17.80;99.90;;;;;;5075882;28;20868;-57
2022/07/02 01:04:57;;;;;;;7.80;7.20;;;17.80;99.90;;;;;;5075840;28;20520;-58
2022/07/02 01:07:24;;;;;;;7.20;6.70;;;17.70;99.90;;;;;;5075626;28;20481;-58
2022/07/02 01:12:41;;;;;;;7.10;6.70;;;17.70;99.90;;;;;;5076048;28;20450;-57
2022/07/02 01:15:09;;;;;;;6.50;6.10;;;17.70;99.90;;;;;;5075768;28;20447;-56
2022/07/02 01:17:35;;;;;;;6.60;6.20;;;17.60;99.90;;;;;;5075502;28;20537;-58
2022/07/02 01:20:03;;;;;;;7.80;7.23;;;17.60;99.90;;;;;;5075780;28;20497;-58
2022/07/02 01:22:34;;;;;;;7.43;6.83;;;17.60;99.90;;;;;;5075621;28;20475;-58
2022/07/02 01:25:01;;;;;;;9.10;8.37;;;17.60;99.90;;;;;;5075613;28;20450;-59
2022/07/02 01:27:27;;;;;;;7.73;6.73;;;17.50;99.90;;;;;;5075367;28;20833;-58
2022/07/02 01:29:54;;;;;;;8.20;7.50;;;17.40;99.90;;;;;;5075395;28;20450;-57
2022/07/02 01:32:21;;;;;;;7.73;7.13;;;17.50;99.90;;;;;;5075300;28;20486;-59
2022/07/02 01:34:49;;;;;;;8.03;7.23;;;17.50;99.90;;;;;;5075270;28;20950;-58
2022/07/02 01:37:17;;;;;;;7.87;7.27;;;17.50;99.90;;;;;;5074664;28;20538;-57
2022/07/02 01:39:46;;;;;;;7.60;7.00;;;17.40;99.90;;;;;;5075325;28;20452;-58
2022/07/02 01:42:14;;;;;;;7.47;6.97;;;17.40;99.90;;;;;;5075238;28;20451;-58
2022/07/02 01:44:41;;;;;;;8.00;7.30;;;17.30;99.90;;;;;;5075044;28;20546;-58
2022/07/02 01:47:09;;;;;;;9.03;8.30;;;17.30;99.90;;;;;;5075315;28;20571;-59
2022/07/02 01:49:37;;;;;;;8.57;7.87;;;17.20;99.90;;;;;;5075153;28;20542;-58
2022/07/02 01:52:05;;;;;;;7.47;6.97;;;17.20;99.90;;;;;;5075197;28;20544;-58
2022/07/02 01:54:32;;;;;;;8.40;7.60;;;17.10;99.90;;;;;;5075005;28;20542;-58
2022/07/02 01:57:00;;;;;;;7.53;6.93;;;17.10;99.90;;;;;;5074876;28;20570;-58
2022/07/02 01:59:27;;;;;;;8.30;7.70;;;17.10;99.90;;;;;;5074785;28;20871;-58
2022/07/02 02:01:54;;;;;;;8.93;8.07;;;17.10;99.90;;;;;;5074969;28;20859;-58
2022/07/02 02:04:20;;;;;;;8.27;7.67;;;17.10;99.90;;;;;;5074899;28;20558;-58
2022/07/02 02:06:47;;;;;;;8.50;7.80;;;17.00;99.90;;;;;;5074626;28;20507;-58
2022/07/02 02:09:14;;;;;;;8.50;7.80;;;17.10;99.90;;;;;;5075035;28;20450;-58
2022/07/02 02:11:40;;;;;;;7.77;7.27;;;17.10;99.90;;;;;;5074555;28;20444;-60
2022/07/02 02:14:08;;;;;;;8.23;7.53;;;17.10;99.90;;;;;;5074449;28;20542;-58
2022/07/02 02:16:35;;;;;;;9.40;8.50;;;17.00;99.90;;;;;;5074715;28;20842;-59
2022/07/02 02:19:01;;;;;;;8.63;7.80;;;17.00;99.90;;;;;;5074573;28;20443;-59
2022/07/02 02:21:29;;;;;;;8.00;7.50;;;17.00;99.90;;;;;;5074464;28;20538;-57
2022/07/02 02:23:57;;;;;;;10.90;8.17;;;17.00;99.90;;;;;;5074374;28;20447;-58
2022/07/02 02:26:24;;;;;;;9.17;8.47;;;17.00;99.90;;;;;;5074113;28;20482;-57
2022/07/02 02:28:51;;;;;;;9.87;8.97;;;16.90;99.90;;;;;;5074705;28;20538;-58
2022/07/02 02:31:18;;;;;;;9.57;8.87;;;16.90;99.90;;;;;;5074403;28;20538;-56
2022/07/02 02:33:45;;;;;;;8.83;8.17;;;16.90;99.90;;;;;;5074331;28;20538;-58
2022/07/02 02:36:11;;;;;;;8.40;7.80;;;16.90;99.90;;;;;;5074201;28;20477;-58
2022/07/02 02:38:38;;;;;;;7.90;7.40;;;17.00;99.90;;;;;;5074159;28;20543;-58
2022/07/02 02:41:06;;;;;;;6.97;6.47;;;16.80;99.90;;;;;;5074055;28;20455;-57
2022/07/02 02:43:33;;;;;;;7.30;6.80;;;16.30;99.90;;;;;;5074129;28;20478;-56
2022/07/02 02:46:00;;;;;;;7.77;7.17;;;16.00;99.90;;;;;;5074034;28;20455;-57
2022/07/02 02:48:28;;;;;;;7.90;7.40;;;15.70;99.90;;;;;;5073190;28;20447;-57
2022/07/02 02:50:54;;;;;;;8.27;7.50;;;15.40;99.90;;;;;;5073745;28;20479;-58
2022/07/02 02:53:21;;;;;;;8.77;8.07;;;15.40;99.90;;;;;;5073769;28;20557;-58
2022/07/02 02:55:47;;;;;;;9.23;8.53;;;15.40;99.90;;;;;;5073709;28;20538;-58
2022/07/02 02:58:14;;;;;;;9.03;8.33;;;15.30;99.90;;;;;;5073487;28;20915;-57
2022/07/02 03:00:40;;;;;;;8.60;8.00;;;15.20;99.90;;;;;;5073755;28;20502;-58
2022/07/02 03:03:07;;;;;;;8.40;7.80;;;15.10;99.90;;;;;;5073779;28;20459;-58
2022/07/02 03:05:34;;;;;;;8.60;8.00;;;15.00;99.90;;;;;;5073719;28;20546;-56
2022/07/02 03:08:01;;;;;;;9.40;8.67;;;14.60;99.90;;;;;;5073501;28;21061;-57
2022/07/02 03:10:27;;;;;;;9.80;8.90;;;14.60;99.90;;;;;;5073582;28;20455;-57
2022/07/02 03:12:54;;;;;;;8.67;8.00;;;14.40;99.90;;;;;;5073684;28;20838;-58
2022/07/02 03:15:20;;;;;;;10.67;9.70;;;14.40;99.90;;;;;;5073654;28;20538;-56
2022/07/02 03:17:47;;;;;;;8.73;7.83;;;14.50;99.90;;;;;;5073540;28;20534;-58
2022/07/02 03:20:13;;;;;;;9.03;8.23;;;14.50;99.90;;;;;;5073736;28;20542;-55
2022/07/02 03:22:41;;;;;;;10.83;10.03;;;14.60;99.90;;;;;;5073345;28;20451;-55
2022/07/02 03:25:09;;;;;;;10.50;9.57;;;14.40;99.90;;;;;;5073530;28;20542;-57
2022/07/02 03:27:36;;;;;;;8.90;8.23;;;14.40;99.90;;;;;;5073368;28;20479;-58
2022/07/02 03:30:02;;;;;;;10.27;9.37;;;14.60;99.90;;;;;;5073344;28;20505;-56
2022/07/02 03:32:29;;;;;;;10.80;9.80;;;14.80;99.90;;;;;;5073237;28;20447;-57
2022/07/02 03:34:56;;;;;;;10.17;9.27;;;14.90;99.90;;;;;;5073271;28;20451;-58
2022/07/02 03:37:26;;;;;;;9.63;8.83;;;14.70;99.90;;;;;;5073038;28;20538;-58
2022/07/02 03:39:54;;;;;;;10.33;9.53;;;14.50;99.90;;;;;;5073238;28;20542;-58
2022/07/02 03:42:21;;;;;;;9.97;9.17;;;14.20;99.90;;;;;;5072947;28;20455;-57
2022/07/02 03:44:47;;;;;;;10.03;9.23;;;14.20;99.90;;;;;;5072917;28;21009;-58
2022/07/02 03:47:14;;;;;;;10.63;9.83;;;14.30;99.90;;;;;;5073315;28;20472;-57
2022/07/02 03:49:40;;;;;;;10.23;9.37;;;14.20;99.90;;;;;;5073089;28;20447;-57
2022/07/02 03:52:07;;;;;;;10.33;9.33;;;14.30;99.90;;;;;;5072995;28;20538;-58
2022/07/02 03:54:34;;;;;;;9.60;8.67;;;14.60;99.90;;;;;;5073133;28;20538;-55
2022/07/02 03:57:01;;;;;;;8.90;8.20;;;14.90;99.90;;;;;;5072859;28;20475;-58
2022/07/02 03:59:28;;;;;;;10.57;9.57;;;15.00;99.90;;;;;;5072783;28;20901;-58
2022/07/02 04:01:54;;;;;;;10.50;9.53;;;15.10;99.90;;;;;;5072762;28;20539;-58
2022/07/02 04:04:21;;;;;;;9.83;9.13;;;15.20;99.90;;;;;;5072698;28;20613;-57
2022/07/02 04:06:48;;;;;;;10.70;9.90;;;15.40;99.90;;;;;;5072865;28;20564;-59
2022/07/02 04:09:14;;;;;;;9.47;8.57;;;15.50;99.90;;;;;;5072720;28;20465;-58
2022/07/02 04:11:41;;;;;;;10.67;9.80;;;15.60;99.90;;;;;;5072794;28;20483;-57
2022/07/02 04:14:09;;;;;;;11.13;10.20;;;15.70;99.90;;;;;;5072779;28;20447;-57
2022/07/02 04:16:35;;;;;;;9.77;9.07;;;15.70;99.90;;;;;;5072377;28;21008;-58
2022/07/02 04:19:02;;;;;;;11.40;9.57;;;15.90;99.90;;;;;;5072525;28;20538;-57
2022/07/02 04:21:28;;;;;;;10.27;9.37;;;16.00;99.90;;;;;;5072811;28;20534;-58
2022/07/02 04:23:55;;;;;;;11.97;10.90;;;16.10;99.90;;;;;;5072805;28;20451;-58
2022/07/02 04:26:21;;;;;;;10.60;9.70;;;16.20;99.90;;;;;;5072662;28;20538;-58
2022/07/02 04:28:49;;;;;;;9.90;9.20;;;;;;;;;;5072533;28;20479;-58
2022/07/02 04:31:17;;;;;;;11.30;10.20;;;;;;;;;;5072574;28;20953;-59
2022/07/02 04:33:45;;;;;;;10.80;10.00;;;;;;;;;;5072530;28;20538;-58
2022/07/02 04:36:12;;;;;;;10.63;9.60;;;;;;;;;;5072716;28;20448;-58
2022/07/02 04:38:39;;;;;;;10.50;9.70;;;;;;;;;;5072730;28;20546;-59
2022/07/02 04:41:06;;;;;;;10.20;9.30;;;;;;;;;;5072637;28;20452;-57
2022/07/02 04:43:33;;;;;;;11.57;9.17;;;;;;;;;;5072477;28;21030;-58
2022/07/02 04:46:00;;;;;;;11.50;10.50;;;;;;;;;;5072450;28;20550;-58
2022/07/02 04:48:28;;;;;;;11.10;10.20;;;;;;;;;;5072604;28;21096;-60
2022/07/02 04:50:55;;;;;;;10.13;9.33;;;;;;;;;;5072687;28;20451;-58
2022/07/02 04:53:22;;;;;;;12.33;11.07;;;;;;;;;;5072566;28;20454;-58
2022/07/02 04:55:49;;;;;;;12.10;9.33;;;;;;;;;;5072525;28;20538;-57
2022/07/02 04:58:16;;;;;;;10.60;9.80;;;;;;;;;;5072490;28;20901;-59
2022/07/02 05:00:43;;;;;;;10.30;9.50;;;;;;;;;;5072578;28;20938;-59
2022/07/02 05:03:10;;;;;;;9.50;8.70;;;;;;;;;;5072541;28;20534;-58
2022/07/02 05:05:38;;;;;;;9.87;9.07;;;;;;;;;;5073003;28;20542;-58
2022/07/02 05:08:05;;;;;;;10.77;9.87;;;;;;;;;;5072594;28;20574;-59
2022/07/02 05:10:32;;;;;;;10.07;9.27;;;;;;;;;;5072390;28;20543;-59
2022/07/02 05:12:59;;;;;;;11.83;9.90;;;;;;;;;;5074295;28;20447;-57
2022/07/02 05:15:26;;;;;;;9.63;8.73;;;;;;;;;;5075879;28;20453;-58
2022/07/02 05:17:53;;;;;;;10.40;9.50;;;;;;;;;;5075988;28;20455;-57
2022/07/02 05:20:20;;;;;;;10.50;9.70;;;;;;;;;;5075685;28;20939;-58
2022/07/02 05:22:48;;;;;;;10.37;9.37;;;;;;;;;;5075973;28;20453;-58
2022/07/02 05:25:15;;;;;;;8.77;8.07;;;;;;;;;;5076010;28;20859;-56
2022/07/02 05:27:42;;;;;;;8.77;8.13;;;;;;;;;;5075539;28;20566;-59
2022/07/02 05:30:09;;;;;;;10.37;9.57;;;;;;;;;;5075776;28;20539;-58
2022/07/02 05:32:36;;;;;;;9.60;8.80;;;;;;;;;;5075802;28;20451;-58
2022/07/02 05:35:03;;;;;;;11.03;9.30;;;;;;;;;;5075634;28;20889;-58
2022/07/02 05:37:30;;;;;;;9.10;8.33;;;;;;;;;;5075565;28;20455;-59
2022/07/02 05:39:58;;;;;;;9.23;8.33;;;;;;;;;;5075454;28;20952;-58
2022/07/02 05:42:25;;;;;;;8.90;8.10;;;;;;;;;;5075572;28;20550;-57
2022/07/02 05:44:52;;;;;;;8.70;7.90;;;;;;;;;;5075782;28;20454;-58
2022/07/02 05:47:19;;;;;;;9.53;8.73;;;;;;;;;;5075294;28;20908;-58
2022/07/02 05:49:46;;;;;;;10.53;9.43;;;;;;;;;;5075368;28;20474;-58
2022/07/02 05:52:14;;;;;;;9.07;8.37;;;;;;;;;;5075173;28;20538;-58
2022/07/02 05:54:41;;;;;;;7.90;7.20;;;;;;;;;;5075141;28;20452;-59
2022/07/02 05:57:09;;;;;;;8.73;8.00;;;;;;;;;;5075222;28;20570;-58
2022/07/02 05:59:36;;;;;;;8.90;8.20;;;;;;;;;;5075109;28;20458;-58
2022/07/02 06:02:03;;;;;;;7.90;7.13;;;;;;;;;;5075015;28;20962;-59
2022/07/02 06:04:31;;;;;;;7.40;6.90;;;;;;;;;;5074737;28;20943;-58
2022/07/02 06:09:43;;;;;;;7.53;6.83;;;;;;;;;;5075127;28;20804;-60
2022/07/02 06:12:11;;;;;;;8.37;7.63;;;;;;;;;;5074958;28;20859;-58
2022/07/02 06:14:38;;;;;;;9.80;7.50;;;;;;;;;;5074764;28;20451;-58
2022/07/02 06:17:06;;;;;;;6.90;6.30;;;;;;;;;;5074731;28;20479;-57
2022/07/02 06:19:33;;;;;;;10.03;7.83;;;;;;;;;;5074701;28;20508;-57
2022/07/02 06:22:00;;;;;;;7.33;6.60;;;;;;;;;;5074466;28;20966;-57
2022/07/02 06:24:27;;;;;;;8.13;7.43;;;;;;;;;;5074557;28;20455;-59
2022/07/02 06:26:54;;;;;;;7.13;6.47;;;;;;;;;;5074647;28;20530;-57
2022/07/02 06:29:22;;;;;;;11.73;7.60;;;;;;;;;;5074508;28;20483;-58
2022/07/02 06:31:49;;;;;;;7.87;7.23;;;;;;;;;;5074404;28;20625;-57
2022/07/02 06:34:16;;;;;;;8.40;6.30;;;;;;;;;;5074339;28;20553;-58
2022/07/02 06:36:43;;;;;;;7.97;7.17;;;;;;;;;;5074449;28;20530;-58
2022/07/02 06:39:10;;;;;;;7.67;7.07;;;;;;;;;;5074356;28;20444;-58
2022/07/02 06:44:23;;;;;;;6.73;6.20;;;;;;;;;;5074182;28;20517;-58
2022/07/02 06:46:50;;;;;;;7.77;7.03;;;;;;;;;;5074003;28;20985;-58
2022/07/02 06:49:18;;;;;;;6.67;6.27;;;;;;;;;;5074139;28;20997;-60
2022/07/02 06:51:45;;;;;;;7.00;6.50;;;;;;;;;;5074086;28;20494;-59
2022/07/02 06:54:12;;;;;;;7.10;6.57;;;;;;;;;;5073838;28;20954;-58
2022/07/02 06:56:39;;;;;;;6.83;6.20;;;;;;;;;;5073843;28;20485;-58
2022/07/02 06:59:07;;;;;;;5.87;5.47;;;;;;;;;;5073845;28;20452;-58
2022/07/02 07:01:35;;;;;;;6.13;5.63;;;;;;;;;;5073671;28;20546;-59
2022/07/02 07:04:02;;;;;;;5.60;5.13;;;21.90;99.90;;;;;;5073777;28;20482;-57
2022/07/02 07:06:29;;;;;;;7.00;5.93;;;22.00;99.90;;;;;;5073731;28;20447;-58
2022/07/02 07:08:55;;;;;;;6.30;5.80;;;22.10;99.90;;;;;;5073626;28;20846;-58
2022/07/02 07:11:22;;;;;;;5.80;5.37;;;22.00;99.90;;;;;;5073454;28;20632;-57
2022/07/02 07:13:50;;;;;;;6.23;5.73;;;22.00;99.90;;;;;;5073471;28;20447;-59
2022/07/02 07:16:17;;;;;;;5.73;5.33;;;22.20;99.90;;;;;;5073730;28;20459;-58
2022/07/02 07:18:45;;;;;;;5.73;5.23;;;22.30;99.90;;;;;;5073390;28;20494;-58
2022/07/02 07:21:12;;;;;;;4.73;4.20;;;22.40;99.90;;;;;;5073388;28;21013;-58
2022/07/02 07:23:38;;;;;;;3.97;3.67;;;22.50;99.90;;;;;;5073413;28;20454;-58
2022/07/02 07:26:05;;;;;;;4.43;4.13;;;22.60;99.90;;;;;;5073425;28;20541;-58
2022/07/02 07:28:31;;;;;;;5.23;4.70;;;22.90;99.90;;;;;;5073109;28;20565;-58
2022/07/02 07:30:58;;;;;;;5.97;5.50;;;22.90;99.90;;;;;;5073313;28;20451;-59
2022/07/02 07:33:24;;;;;;;4.80;4.50;;;22.80;99.90;;;;;;5073330;28;20447;-58
2022/07/02 07:35:52;;;;;;;4.23;3.93;;;22.80;99.90;;;;;;5072675;28;20453;-58
2022/07/02 07:38:18;;;;;;;5.63;4.40;;;23.00;99.90;;;;;;5073175;28;20538;-58
2022/07/02 07:40:45;;;;;;;4.77;4.33;;;22.90;99.90;;;;;;5073074;28;20814;-58
2022/07/02 07:43:12;;;;;;;4.93;4.57;;;22.90;99.90;;;;;;5072847;28;20451;-57
2022/07/02 07:45:38;;;;;;;5.00;4.00;;;22.90;99.90;;;;;;5073423;28;21048;-58
2022/07/02 07:48:05;;;;;;;4.03;3.83;;;23.10;99.90;;;;;;5073016;28;20475;-57
2022/07/02 07:50:32;;;;;;;6.77;3.10;;;23.10;99.90;;;;;;5073016;28;20447;-59
2022/07/02 07:52:59;;;;;;;3.30;3.10;;;23.10;99.90;;;;;;5073163;28;20943;-57
2022/07/02 07:55:26;;;;;;;3.27;3.07;;;23.30;99.90;;;;;;5072910;28;20609;-58
2022/07/02 07:57:53;;;;;;;2.80;2.60;;;23.60;99.90;;;;;;5072899;28;20557;-58
2022/07/02 08:00:19;;;;;;;2.93;2.57;;;23.80;99.90;;;;;;5073017;28;20554;-58
2022/07/02 08:02:46;;;;;;;3.10;2.60;;;24.00;99.90;;;;;;5072930;28;20443;-59
2022/07/02 08:05:12;;;;;;;2.50;2.30;;;24.20;99.90;;;;;;5073069;28;20439;-57
2022/07/02 08:07:40;;;;;;;2.70;2.50;;;24.30;99.90;;;;;;5072815;28;20938;-57
2022/07/02 08:10:10;;;;;;;2.00;1.83;;;24.20;99.90;;;;;;5072644;28;20457;-58
2022/07/02 08:12:36;;;;;;;2.40;2.30;;;24.20;99.90;;;;;;5072906;28;20483;-57
2022/07/02 08:15:03;;;;;;;2.30;2.20;;;24.40;99.90;;;;;;5072855;28;20832;-58
2022/07/02 08:17:30;;;;;;;2.60;2.40;;;24.70;99.90;;;;;;5072893;28;20887;-58
2022/07/02 08:19:56;;;;;;;4.93;2.93;;;24.50;99.90;;;;;;5072709;28;20447;-57
2022/07/02 08:22:23;;;;;;;4.10;1.97;;;24.50;99.90;;;;;;5072679;28;20451;-59
2022/07/02 08:24:50;;;;;;;1.90;1.50;;;24.60;99.90;;;;;;5072437;28;20458;-58
2022/07/02 08:27:18;;;;;;;3.10;1.67;;;24.50;99.90;;;;;;5072624;28;20942;-56
2022/07/02 08:29:45;;;;;;;4.07;2.30;;;24.30;99.90;;;;;;5072394;28;21009;-57
2022/07/02 08:32:11;;;;;;;1.40;1.30;;;24.50;99.90;;;;;;5072663;28;20443;-58
2022/07/02 08:34:38;;;;;;;6.10;1.70;;;24.50;99.90;;;;;;5072622;28;20447;-59
2022/07/02 08:37:05;;;;;;;2.50;1.67;;;24.70;99.90;;;;;;5072613;28;20448;-58
2022/07/02 08:39:31;;;;;;;1.47;1.37;;;25.00;99.90;;;;;;5072724;28;20523;-57
2022/07/02 08:42:00;;;;;;;2.40;1.53;;;25.00;99.90;;;;;;5072654;28;20534;-57
2022/07/02 08:44:29;;;;;;;2.67;1.60;;;25.30;99.90;;;;;;5072636;28;20822;-58
2022/07/02 08:46:56;;;;;;;3.53;1.50;;;25.40;99.90;;;;;;5073042;28;20466;-59
2022/07/02 08:49:24;;;;;;;2.43;1.47;;;24.90;99.90;;;;;;5076155;28;20475;-58
2022/07/02 08:51:56;;;;;;;3.40;2.10;;;25.00;99.90;;;;;;5076065;28;20904;-56
2022/07/02 08:54:23;;;;;;;2.13;1.50;;;25.30;99.90;;;;;;5076052;28;20443;-58
2022/07/02 08:56:51;;;;;;;2.70;1.90;;;25.50;99.90;;;;;;5076042;28;20477;-57
2022/07/02 08:59:18;;;;;;;2.23;1.27;;;25.70;99.90;;;;;;5076046;28;20446;-58
2022/07/02 09:01:47;;;;;;;4.33;1.67;;;25.70;99.50;;;;;;5075983;28;20526;-57
2022/07/02 09:04:15;;;;;;;1.40;1.30;;;25.70;98.70;;;;;;5075852;28;20806;-58
2022/07/02 09:06:42;;;;;;;2.30;1.50;;;25.90;98.40;;;;;;5076046;28;20449;-57
2022/07/02 09:09:09;;;;;;;2.90;1.10;;;26.00;96.40;;;;;;5076225;28;20479;-56
2022/07/02 09:11:36;;;;;;;1.90;1.00;;;26.10;96.60;;;;;;5076045;28;20521;-57
2022/07/02 09:14:03;;;;;;;2.23;1.50;;;26.20;95.50;;;;;;5075726;28;20458;-58
2022/07/02 09:16:30;;;;;;;1.47;1.37;;;25.90;94.30;;;;;;5075750;28;20453;-56
2022/07/02 09:18:58;;;;;;;1.93;1.30;;;25.80;97.00;;;;;;5075701;28;20494;-58
2022/07/02 09:21:24;;;;;;;4.60;1.33;;;26.00;95.50;;;;;;5076069;28;20458;-58
2022/07/02 09:23:51;;;;;;;2.67;1.30;;;26.00;95.70;;;;;;5075809;28;20509;-58
2022/07/02 09:26:19;;;;;;;2.93;1.30;;;25.80;95.60;;;;;;5075833;28;20478;-58
2022/07/02 09:28:55;;;;;;;3.83;2.40;;;25.70;94.40;;;;;;5075483;28;20872;-58
2022/07/02 09:31:22;;;;;;;4.97;2.00;;;25.50;95.00;;;;;;5075427;28;20446;-58
2022/07/02 09:33:48;;;;;;;2.00;1.20;;;25.60;93.60;;;;;;5075627;28;20441;-57
2022/07/02 09:36:16;;;;;;;2.80;1.20;;;25.70;93.80;;;;;;5075584;28;20483;-57
2022/07/02 09:38:43;;;;;;;1.93;1.00;;;25.60;93.90;;;;;;5075458;28;20534;-56
2022/07/02 09:41:13;;;;;;;4.70;1.47;;;25.90;94.20;;;;;;5075407;28;20479;-58
2022/07/02 09:43:40;;;;;;;3.40;1.30;;;26.30;93.60;;;;;;5075772;28;20454;-57
2022/07/02 09:46:15;;;;;;;2.17;1.40;;;26.30;92.80;;;;;;5075294;28;20780;-57
2022/07/02 09:48:42;;;;;;;2.30;2.10;;;26.10;92.40;;;;;;5075071;28;20506;-58
2022/07/02 09:51:08;;;;;;;1.33;1.20;;;26.30;93.20;;;;;;5075480;28;20447;-58
2022/07/02 09:53:46;;;;;;;3.53;1.67;;;26.60;92.20;;;;;;5075179;28;20938;-57
2022/07/02 09:56:13;;;;;;;1.33;1.23;;;26.30;90.90;;;;;;5074847;28;20830;-57
2022/07/02 09:58:39;;;;;;;1.30;1.20;;;26.40;91.10;;;;;;5074669;28;20534;-57
2022/07/02 10:01:06;;;;;;;2.63;1.40;;;26.10;92.20;;;;;;5075205;28;20454;-58
2022/07/02 10:03:32;;;;;;;2.03;1.00;;;26.40;91.80;;;;;;5075261;28;20447;-59
2022/07/02 10:05:59;;;;;;;1.90;1.40;;;26.40;91.20;;;;;;5074941;28;20907;-58
2022/07/02 10:08:26;;;;;;;2.00;1.30;;;26.30;91.50;;;;;;5074716;28;20486;-59
2022/07/02 10:10:54;;;;;;;3.90;1.53;;;26.10;92.70;;;;;;5074956;28;20447;-57
2022/07/02 10:13:20;;;;;;;4.53;1.60;;;26.10;94.30;;;;;;5074896;28;20457;-57
2022/07/02 10:15:53;;;;;;;2.40;1.23;;;26.50;91.70;;;;;;5074835;28;20800;-58
2022/07/02 10:18:19;;;;;;;1.70;1.00;;;26.70;92.20;;;;;;5074789;28;20458;-57
2022/07/02 10:20:47;;;;;;;2.03;1.20;;;26.60;90.10;;;;;;5074640;28;20448;-58
2022/07/02 10:23:15;;;;;;;2.13;1.50;;;26.60;90.00;;;;;;5074494;28;20448;-58
2022/07/02 10:25:43;;;;;;;1.53;1.23;;;26.70;87.50;;;;;;5074386;28;20942;-57
2022/07/02 10:28:11;;;;;;;1.60;1.00;;;26.90;87.00;;;;;;5074572;28;20443;-58
2022/07/02 10:30:38;;;;;;;1.07;0.97;;;27.00;87.30;;;;;;5074451;28;20497;-58
2022/07/02 10:33:14;;;;;;;5.23;1.37;;;27.00;87.50;;;;;;5074391;28;20879;-58
2022/07/02 10:35:42;;;;;;;1.37;1.20;;;26.90;86.00;;;;;;5074406;28;20465;-57
2022/07/02 10:38:09;;;;;;;1.00;0.90;;;26.80;86.50;;;;;;5074352;28;20447;-58
2022/07/02 10:40:47;;;;;;;2.40;1.00;;;27.10;88.60;;;;;;5074190;28;20459;-57
2022/07/02 10:43:17;;;;;;;1.53;1.10;;;27.50;86.10;;;;;;5074263;28;20458;-58
2022/07/02 10:45:43;;;;;;;3.30;1.10;;;27.70;80.30;;;;;;5074110;28;20455;-59
2022/07/02 10:48:12;;;;;;;1.20;1.00;;;27.60;78.90;;;;;;5074016;28;20814;-57
2022/07/02 10:50:40;;;;;;;1.83;1.10;;;27.60;80.70;;;;;;5073973;28;20490;-57
2022/07/02 10:53:09;;;;;;;1.43;1.00;;;27.70;82.00;;;;;;5074127;28;20475;-57
2022/07/02 10:55:36;;;;;;;3.23;0.97;;;27.80;81.00;;;;;;5073970;28;20463;-57
2022/07/02 10:58:04;;;;;;;1.60;0.90;;;27.80;75.80;;;;;;5073814;28;20538;-57
2022/07/02 11:00:34;;;;;;;2.50;1.20;;;27.20;76.90;;;;;;5073680;28;20443;-58
2022/07/02 11:03:12;;;;;;;2.40;1.37;;;26.70;77.70;;;;;;5073895;28;20539;-57
2022/07/02 11:05:56;;;;;;;2.80;1.00;;;27.20;79.80;;;;;;5073786;28;20447;-58
2022/07/02 11:08:46;;;;;;;1.50;1.20;;;27.40;78.00;;;;;;5073691;28;20451;-58
2022/07/02 11:11:17;;;;;;;1.30;1.20;;;27.70;76.90;;;;;;5072679;28;20435;-58
2022/07/02 11:13:47;;;;;;;3.53;1.00;;;27.90;76.90;;;;;;5073741;28;20483;-56
2022/07/02 11:16:24;;;;;;;5.03;1.20;;;27.90;75.10;;;;;;5073681;28;20526;-58
2022/07/02 11:18:51;;;;;;;1.50;1.17;;;27.70;72.70;;;;;;5073596;28;20565;-58
2022/07/02 11:21:19;;;;;;;0.97;0.90;;;27.40;72.50;;;;;;5073406;28;20448;-58
2022/07/02 11:23:45;;;;;;;1.40;1.20;;;27.10;74.70;;;;;;5073256;28;20454;-59
2022/07/02 11:26:16;;;;;;;0.90;0.90;;;27.10;75.40;;;;;;5073330;28;20462;-58
2022/07/02 11:28:43;;;;;;;1.20;1.10;;;27.50;74.40;;;;;;5073311;28;20522;-58
2022/07/02 11:31:10;;;;;;;1.77;1.00;;;27.20;72.20;;;;;;5073248;28;20447;-57
2022/07/02 11:33:42;;;;;;;1.40;1.13;;;26.80;73.30;;;;;;5073316;28;20544;-57
2022/07/02 11:36:09;;;;;;;2.13;1.10;;;26.80;74.90;;;;;;5073263;28;21014;-57
2022/07/02 11:38:38;;;;;;;2.07;1.00;;;27.30;72.90;;;;;;5073066;28;20965;-58
2022/07/02 11:41:14;;;;;;;1.13;1.00;;;27.80;74.10;;;;;;5073344;28;20505;-58
2022/07/02 11:43:41;;;;;;;1.40;0.90;;;28.20;72.60;;;;;;5073299;28;20547;-58
2022/07/02 11:46:07;;;;;;;1.40;1.30;;;28.60;70.30;;;;;;5073107;28;20448;-58
2022/07/02 11:48:34;;;;;;;1.60;1.10;;;27.80;68.10;;;;;;5073301;28;20447;-58
2022/07/02 11:51:02;;;;;;;1.13;0.93;;;27.20;71.60;;;;;;5072770;28;21033;-57
2022/07/02 11:53:28;;;;;;;2.20;1.70;;;27.60;72.50;;;;;;5073377;28;20447;-59
2022/07/02 11:56:05;;;;;;;2.70;1.17;;;28.10;71.90;;;;;;5072898;28;20534;-59
2022/07/02 11:58:38;;;;;;;1.20;1.10;;;28.30;72.20;;;;;;5073053;28;20447;-57
2022/07/02 12:01:05;;;;;;;1.20;1.10;;;28.60;70.00;;;;;;5072980;28;20451;-57
2022/07/02 12:03:31;;;;;;;1.60;1.50;;;28.50;67.10;;;;;;5073291;28;20538;-58
2022/07/02 12:05:58;;;;;;;1.53;1.20;;;28.00;68.70;;;;;;5072899;28;20537;-57
2022/07/02 12:08:27;;;;;;;1.97;1.17;;;28.30;72.10;;;;;;5072752;28;20853;-57
2022/07/02 12:10:53;;;;;;;1.77;1.00;;;28.60;69.70;;;;;;5072708;28;20491;-57
2022/07/02 12:13:20;;;;;;;1.23;1.10;;;28.80;70.30;;;;;;5072800;28;20479;-57
2022/07/02 12:15:47;;;;;;;1.53;1.10;;;28.70;69.20;;;;;;5072605;28;20534;-56
2022/07/02 12:18:18;;;;;;;2.33;1.20;;;28.40;68.30;;;;;;5072694;28;20474;-57
2022/07/02 12:20:45;;;;;;;1.53;1.43;;;28.20;68.50;;;;;;5072828;28;21017;-54
2022/07/02 12:23:11;;;;;;;1.87;1.37;;;27.10;68.80;;;;;;5076943;28;20561;-58
2022/07/02 12:25:46;;;;;;;1.77;1.30;;;26.20;69.10;;;;;;5076675;28;20520;-57
2022/07/02 12:30:57;;;;;;;2.33;1.40;;;25.70;71.40;;;;;;5076949;28;20478;-59
2022/07/02 12:33:31;;;;;;;2.07;1.60;;;25.70;73.40;;;;;;5076765;28;20479;-57
2022/07/02 12:35:59;;;;;;;2.27;1.77;;;25.40;75.30;;;;;;5076685;28;20474;-58
2022/07/02 12:38:26;;;;;;;4.50;1.33;;;25.70;79.20;;;;;;5076643;28;20443;-58
2022/07/02 12:41:00;;;;;;;2.10;1.37;;;26.00;75.30;;;;;;5076477;28;20451;-59
2022/07/02 12:43:26;;;;;;;1.30;1.10;;;26.20;74.80;;;;;;5076698;28;20450;-58
2022/07/02 12:46:03;;;;;;;3.80;1.43;;;26.30;75.30;;;;;;5077067;28;20469;-56
2022/07/02 12:48:30;;;;;;;1.43;1.30;;;26.10;72.40;;;;;;5076352;28;20447;-55
2022/07/02 12:50:58;;;;;;;1.80;1.70;;;25.90;73.70;;;;;;5076105;28;20480;-57
2022/07/02 12:53:26;;;;;;;1.60;1.50;;;26.00;72.50;;;;;;5076068;28;20455;-56
2022/07/02 12:55:55;;;;;;;3.10;1.50;;;25.90;72.90;;;;;;5076231;28;20447;-58
2022/07/02 12:58:23;;;;;;;2.13;1.60;;;25.50;72.60;;;;;;5076255;28;20459;-59
2022/07/02 13:00:50;;;;;;;1.50;1.20;;;25.60;73.00;;;;;;5076188;28;20478;-58
2022/07/02 13:03:18;;;;;;;1.57;1.47;;;25.60;73.50;;;;;;5076300;28;20542;-58
2022/07/02 13:05:46;;;;;;;3.27;1.40;;;25.90;74.60;;;;;;5076042;28;20515;-58
2022/07/02 13:08:13;;;;;;;4.17;1.43;;;26.00;72.50;;;;;;5075849;28;20500;-59
2022/07/02 13:10:44;;;;;;;1.40;1.27;;;26.10;71.80;;;;;;5076025;28;20479;-59
2022/07/02 13:13:11;;;;;;;1.67;1.13;;;26.10;73.40;;;;;;5076100;28;20542;-59
2022/07/02 13:15:39;;;;;;;3.20;1.47;;;26.10;72.50;;;;;;5075880;28;20547;-56
2022/07/02 13:18:05;;;;;;;1.13;1.03;;;26.50;72.90;;;;;;5075830;28;20465;-58